Time;durP1;ratioP1;P1;durP2;ratioP2;P2;SDS_P1;SDS_P2;PMS_P1;PMS_P2;Temp;Humidity;BMP_temperature;BMP_pressure;BME280_temperature;BME280_humidity;BME280_pressure;Samples;Min_cycle;Max_cycle;Signal;HPM_P1;HPM_P2
2022/09/04 00:01:56;;;;;;;6.00;2.37;;;16.70;1.00;;;;;;5069729;28;20446;-79
2022/09/04 00:04:34;;;;;;;7.07;2.20;;;16.70;1.00;;;;;;5064711;28;20491;-79
2022/09/04 00:07:12;;;;;;;8.87;2.83;;;16.60;1.00;;;;;;5059064;28;20480;-78
2022/09/04 00:09:52;;;;;;;5.40;2.43;;;16.60;1.00;;;;;;5070708;28;20467;-82
2022/09/04 00:12:24;;;;;;;5.53;2.17;;;16.50;1.00;;;;;;5076430;28;20469;-82
2022/09/04 00:15:01;;;;;;;7.87;2.43;;;16.50;1.00;;;;;;5077815;28;20467;-81
2022/09/04 00:17:35;;;;;;;7.27;2.27;;;16.50;1.00;;;;;;5079034;28;20439;-78
2022/09/04 00:20:11;;;;;;;6.93;2.60;;;16.40;1.00;;;;;;5074871;28;20431;-82
2022/09/04 00:22:51;;;;;;;5.47;2.30;;;16.40;1.00;;;;;;5081841;28;20439;-81
2022/09/04 00:25:32;;;;;;;6.50;2.50;;;16.40;1.00;;;;;;5079201;28;20465;-81
2022/09/04 00:28:06;;;;;;;8.10;2.67;;;16.40;1.00;;;;;;5072413;28;20471;-82
2022/09/04 00:30:40;;;;;;;5.20;2.03;;;16.30;1.00;;;;;;5079465;28;20411;-83
2022/09/04 00:33:15;;;;;;;6.13;2.33;;;16.30;1.00;;;;;;5063521;28;20439;-80
2022/09/04 00:35:47;;;;;;;9.83;4.00;;;16.30;1.00;;;;;;5065120;28;21240;-82
2022/09/04 00:38:21;;;;;;;6.40;1.93;;;16.20;1.00;;;;;;5061565;28;20992;-83
2022/09/04 00:41:12;;;;;;;6.87;2.37;;;16.20;1.00;;;;;;5058740;28;20466;-83
2022/09/04 00:44:06;;;;;;;5.20;2.13;;;16.20;1.00;;;;;;5065048;28;20484;-83
2022/09/04 00:47:09;;;;;;;7.80;2.17;;;16.10;1.00;;;;;;5082960;28;20962;-82
2022/09/04 00:50:05;;;;;;;6.70;2.23;;;16.10;1.00;;;;;;5064107;28;20451;-83
2022/09/04 00:52:53;;;;;;;6.20;2.13;;;16.10;1.00;;;;;;5066632;28;20443;-82
2022/09/04 00:55:38;;;;;;;5.43;2.07;;;16.00;1.00;;;;;;5072832;28;20462;-82
2022/09/04 00:58:37;;;;;;;6.10;2.20;;;16.00;1.00;;;;;;5072972;28;20432;-82
2022/09/04 01:01:28;;;;;;;6.23;1.93;;;15.90;1.00;;;;;;5056932;28;20527;-82
2022/09/04 01:04:28;;;;;;;5.60;2.03;;;16.00;1.00;;;;;;5017759;28;20539;-80
2022/09/04 01:07:21;;;;;;;6.20;1.70;;;15.90;1.00;;;;;;5052776;28;20415;-81
2022/09/04 01:10:15;;;;;;;6.77;1.73;;;15.90;1.00;;;;;;5057405;28;20918;-82
2022/09/04 01:15:43;;;;;;;5.40;1.80;;;15.90;1.00;;;;;;5031608;28;20438;-82
2022/09/04 01:18:26;;;;;;;6.80;1.80;;;15.80;1.00;;;;;;5024297;28;20440;-83
2022/09/04 01:21:29;;;;;;;6.73;2.10;;;15.90;1.00;;;;;;5069033;28;20434;-81
2022/09/04 01:24:34;;;;;;;5.47;1.90;;;15.90;1.00;;;;;;5058343;28;20541;-82
2022/09/04 01:27:07;;;;;;;5.47;1.60;;;15.90;1.00;;;;;;5078026;28;20422;-82
2022/09/04 01:29:46;;;;;;;5.70;2.10;;;15.90;1.00;;;;;;5079050;28;20904;-82
2022/09/04 01:32:38;;;;;;;5.33;2.10;;;15.90;1.00;;;;;;5077255;28;20438;-81
2022/09/04 01:35:15;;;;;;;6.57;1.93;;;15.90;1.00;;;;;;5075689;28;20531;-78
2022/09/04 01:37:54;;;;;;;5.47;2.00;;;15.90;1.00;;;;;;5086011;28;20918;-83
2022/09/04 01:40:35;;;;;;;6.43;1.70;;;15.90;1.00;;;;;;5078967;28;20507;-82
2022/09/04 01:43:07;;;;;;;7.00;1.73;;;15.90;1.00;;;;;;5148921;22;20452;-81
2022/09/04 01:46:16;;;;;;;6.83;1.90;;;15.90;1.00;;;;;;5061711;28;20421;-78
2022/09/04 01:48:55;;;;;;;5.20;1.70;;;15.90;1.00;;;;;;5062120;28;20466;-79
2022/09/04 01:51:36;;;;;;;5.40;1.70;;;15.90;1.00;;;;;;5063388;28;20436;-81
2022/09/04 01:54:36;;;;;;;5.97;2.50;;;15.90;1.00;;;;;;5053478;28;21413;-78
2022/09/04 01:57:16;;;;;;;6.90;1.60;;;15.90;1.00;;;;;;5052875;28;20480;-81
2022/09/04 02:00:06;;;;;;;7.20;1.97;;;15.90;1.00;;;;;;5056929;28;20468;-78
2022/09/04 02:02:51;;;;;;;5.10;1.70;;;15.90;1.00;;;;;;5062656;28;20444;-80
2022/09/04 02:05:26;;;;;;;6.40;1.87;;;15.90;1.00;;;;;;5061166;28;20448;-82
2022/09/04 02:08:11;;;;;;;5.90;2.00;;;15.80;1.00;;;;;;5056001;28;21017;-81
2022/09/04 02:10:46;;;;;;;5.00;1.60;;;15.70;1.00;;;;;;5044538;28;20472;-80
2022/09/04 02:13:25;;;;;;;6.20;1.67;;;15.70;1.00;;;;;;5055364;28;20455;-80
2022/09/04 02:16:07;;;;;;;5.97;1.90;;;15.60;1.00;;;;;;5057093;28;20552;-80
2022/09/04 02:18:46;;;;;;;5.50;1.60;;;15.50;1.00;;;;;;5057312;28;20424;-81
2022/09/04 02:21:26;;;;;;;6.10;1.80;;;15.60;1.00;;;;;;5057466;28;20989;-81
2022/09/04 02:24:06;;;;;;;8.53;1.70;;;15.50;1.00;;;;;;5050048;28;20464;-81
2022/09/04 02:26:41;;;;;;;5.00;1.80;;;15.50;1.00;;;;;;5053921;28;20426;-81
2022/09/04 02:29:15;;;;;;;8.33;2.03;;;15.50;1.00;;;;;;5053362;28;20517;-80
2022/09/04 02:31:55;;;;;;;6.30;1.20;;;15.40;1.00;;;;;;5052509;28;20417;-81
2022/09/04 02:34:29;;;;;;;5.13;1.57;;;15.40;1.00;;;;;;5057507;28;21434;-80
2022/09/04 02:37:03;;;;;;;7.43;1.80;;;15.40;1.00;;;;;;5057605;28;20481;-81
2022/09/04 02:39:45;;;;;;;5.93;1.80;;;15.40;1.00;;;;;;5056402;28;20454;-79
2022/09/04 02:42:23;;;;;;;6.00;1.80;;;15.40;1.00;;;;;;5056533;28;20476;-80
2022/09/04 02:45:00;;;;;;;5.50;1.80;;;15.30;1.00;;;;;;5058921;28;20853;-83
2022/09/04 02:47:38;;;;;;;6.13;1.77;;;15.40;1.00;;;;;;5052802;28;20579;-77
2022/09/04 02:50:17;;;;;;;5.83;2.50;;;15.40;1.00;;;;;;5057900;28;20962;-77
2022/09/04 02:53:02;;;;;;;4.97;1.80;;;15.40;1.00;;;;;;5059741;28;20491;-75
2022/09/04 02:55:45;;;;;;;5.53;1.60;;;15.50;1.00;;;;;;5061694;28;21037;-81
2022/09/04 02:58:38;;;;;;;5.80;1.53;;;15.50;1.00;;;;;;5067154;28;20439;-80
2022/09/04 03:01:17;;;;;;;5.33;2.07;;;15.50;1.00;;;;;;5060872;28;20923;-81
2022/09/04 03:03:55;;;;;;;6.90;1.60;;;15.50;1.00;;;;;;5060907;28;20468;-78
2022/09/04 03:06:31;;;;;;;6.77;2.00;;;15.50;1.00;;;;;;5064146;28;20475;-80
2022/09/04 03:09:05;;;;;;;7.10;2.30;;;15.50;1.00;;;;;;5061018;28;20490;-77
2022/09/04 03:11:39;;;;;;;5.00;1.80;;;15.50;1.00;;;;;;5061196;28;20463;-80
2022/09/04 03:14:16;;;;;;;5.70;1.70;;;15.50;1.00;;;;;;5058437;28;20542;-80
2022/09/04 03:16:50;;;;;;;5.53;1.60;;;15.60;1.00;;;;;;5063102;28;20514;-80
2022/09/04 03:19:28;;;;;;;5.40;1.60;;;15.50;1.00;;;;;;5018166;28;20438;-81
2022/09/04 03:22:04;;;;;;;5.27;1.50;;;15.50;1.00;;;;;;5049567;28;20433;-81
2022/09/04 03:24:40;;;;;;;5.33;1.73;;;15.40;1.00;;;;;;5054347;28;20467;-78
2022/09/04 03:27:10;;;;;;;4.90;1.60;;;15.40;1.00;;;;;;5059523;28;20472;-80
2022/09/04 03:29:50;;;;;;;5.33;1.70;;;15.30;1.00;;;;;;5059811;28;20424;-77
2022/09/04 03:32:23;;;;;;;5.30;1.53;;;15.30;1.00;;;;;;5049377;28;20500;-80
2022/09/04 03:35:07;;;;;;;5.17;1.73;;;15.20;1.00;;;;;;5062320;28;22286;-80
2022/09/04 03:37:56;;;;;;;8.90;1.73;;;15.20;1.00;;;;;;5063371;28;20456;-80
2022/09/04 03:40:37;;;;;;;5.00;1.70;;;15.10;1.00;;;;;;5057644;28;20472;-82
2022/09/04 03:43:19;;;;;;;7.13;1.50;;;15.10;1.00;;;;;;5060247;28;20447;-82
2022/09/04 03:45:59;;;;;;;5.37;1.70;;;15.10;1.00;;;;;;5061821;28;20484;-81
2022/09/04 03:48:50;;;;;;;5.80;1.50;;;15.10;1.00;;;;;;5061799;28;20428;-80
2022/09/04 03:51:25;;;;;;;6.13;1.57;;;15.00;1.00;;;;;;5041348;28;20960;-81
2022/09/04 03:54:06;;;;;;;5.33;1.60;;;15.00;1.00;;;;;;5046135;28;20464;-78
2022/09/04 03:57:06;;;;;;;5.10;1.60;;;14.90;1.00;;;;;;5056143;28;20947;-82
2022/09/04 03:59:53;;;;;;;5.37;1.73;;;14.90;1.00;;;;;;5059586;28;20483;-81
2022/09/04 04:02:36;;;;;;;6.33;1.67;;;14.80;1.00;;;;;;5053469;28;20408;-81
2022/09/04 04:05:35;;;;;;;6.53;2.00;;;14.80;1.00;;;;;;5053293;28;20463;-77
2022/09/04 04:08:35;;;;;;;5.77;1.83;;;14.70;1.00;;;;;;5063572;28;20452;-81
2022/09/04 04:11:26;;;;;;;6.33;1.80;;;14.70;1.00;;;;;;5052555;28;20436;-82
2022/09/04 04:14:37;;;;;;;6.57;2.10;;;14.60;1.00;;;;;;5057587;28;20452;-77
2022/09/04 04:17:23;;;;;;;8.83;2.30;;;14.60;1.00;;;;;;5060649;28;20590;-80
2022/09/04 04:20:16;;;;;;;6.30;1.67;;;14.60;1.00;;;;;;5062724;28;20424;-81
2022/09/04 04:23:08;;;;;;;7.23;1.80;;;14.60;1.00;;;;;;5061673;28;20467;-82
2022/09/04 04:25:49;;;;;;;5.10;1.73;;;14.50;1.00;;;;;;5063564;28;20451;-80
2022/09/04 04:28:36;;;;;;;8.30;1.87;;;14.50;1.00;;;;;;5060078;28;20424;-76
2022/09/04 04:31:16;;;;;;;5.23;1.77;;;14.40;1.00;;;;;;5058551;28;20456;-78
2022/09/04 04:34:10;;;;;;;6.00;2.00;;;14.40;1.00;;;;;;5053604;28;20437;-80
2022/09/04 04:36:55;;;;;;;6.10;1.90;;;14.40;1.00;;;;;;5063838;28;20961;-78
2022/09/04 04:39:29;;;;;;;5.60;1.67;;;14.30;1.00;;;;;;5056912;28;20577;-79
2022/09/04 04:42:08;;;;;;;7.43;1.97;;;14.30;1.00;;;;;;5047137;28;20425;-81
2022/09/04 04:48:22;;;;;;;5.80;1.87;;;14.30;1.00;;;;;;5018539;28;20426;-80
2022/09/04 04:51:04;;;;;;;6.97;2.83;;;14.30;1.00;;;;;;5018110;28;21197;-77
2022/09/04 04:53:36;;;;;;;6.53;2.00;;;14.20;1.00;;;;;;5039122;28;20405;-81
2022/09/04 04:56:13;;;;;;;5.60;2.10;;;14.20;1.00;;;;;;5040158;28;20495;-80
2022/09/04 04:58:52;;;;;;;6.20;1.80;;;14.20;1.00;;;;;;5042489;28;20417;-80
2022/09/04 05:01:36;;;;;;;6.70;1.57;;;14.20;1.00;;;;;;5035285;28;20465;-79
2022/09/04 05:04:17;;;;;;;14.67;2.47;;;14.20;1.00;;;;;;5040012;28;20485;-79
2022/09/04 05:06:53;;;;;;;5.83;1.90;;;14.20;1.00;;;;;;5042197;28;20442;-79
2022/09/04 05:09:32;;;;;;;6.07;2.30;;;14.20;1.00;;;;;;5045663;28;20491;-80
2022/09/04 05:12:09;;;;;;;5.90;1.83;;;14.10;1.00;;;;;;5043160;28;20456;-81
2022/09/04 05:14:47;;;;;;;4.83;1.40;;;14.10;1.00;;;;;;5044203;28;20873;-82
2022/09/04 05:17:27;;;;;;;5.10;1.50;;;14.10;1.00;;;;;;5044328;28;21371;-79
2022/09/04 05:20:20;;;;;;;5.30;1.70;;;14.10;1.00;;;;;;5044576;28;20445;-81
2022/09/04 05:22:53;;;;;;;7.20;2.03;;;14.10;1.00;;;;;;5042090;28;20488;-80
2022/09/04 05:25:32;;;;;;;7.57;1.90;;;14.10;1.00;;;;;;5040745;28;20493;-81
2022/09/04 05:28:16;;;;;;;6.93;2.20;;;14.10;1.00;;;;;;5042681;28;20482;-80
2022/09/04 05:31:08;;;;;;;6.07;1.50;;;14.20;1.00;;;;;;5034047;28;20440;-78
2022/09/04 05:33:45;;;;;;;5.30;1.87;;;14.20;1.00;;;;;;5036174;28;20453;-81
2022/09/04 05:36:23;;;;;;;7.73;2.53;;;14.30;1.00;;;;;;5042267;28;20442;-81
2022/09/04 05:39:07;;;;;;;5.40;1.93;;;14.30;1.00;;;;;;5038694;28;20473;-81
2022/09/04 05:41:50;;;;;;;10.33;2.37;;;14.40;1.00;;;;;;5040521;28;20447;-78
2022/09/04 05:44:35;;;;;;;5.10;1.80;;;14.40;1.00;;;;;;5039434;28;20483;-77
2022/09/04 05:47:17;;;;;;;5.27;1.80;;;14.50;1.00;;;;;;5040318;28;20464;-81
2022/09/04 05:50:04;;;;;;;5.23;2.17;;;14.60;1.00;;;;;;5052343;28;20511;-81
2022/09/04 05:53:06;;;;;;;6.60;1.60;;;14.60;1.00;;;;;;5063094;28;20896;-81
2022/09/04 05:56:07;;;;;;;7.47;2.00;;;14.70;1.00;;;;;;5061491;28;20499;-80
2022/09/04 05:58:57;;;;;;;5.90;1.90;;;14.80;1.00;;;;;;5049363;28;21219;-78
2022/09/04 06:01:48;;;;;;;4.93;1.53;;;14.80;1.00;;;;;;5060674;28;20451;-81
2022/09/04 06:04:46;;;;;;;6.13;1.73;;;14.90;1.00;;;;;;5059563;28;20410;-79
2022/09/04 06:07:26;;;;;;;6.87;2.00;;;15.00;1.00;;;;;;5064566;28;20427;-81
2022/09/04 06:10:02;;;;;;;6.93;1.80;;;15.00;1.00;;;;;;5060246;28;20478;-81
2022/09/04 06:12:58;;;;;;;6.00;2.20;;;15.00;1.00;;;;;;5062651;28;20432;-81
2022/09/04 06:15:36;;;;;;;5.40;1.90;;;15.00;1.00;;;;;;5041670;28;20451;-83
2022/09/04 06:18:31;;;;;;;4.93;1.80;;;15.10;1.00;;;;;;5062359;28;20416;-80
2022/09/04 06:21:37;;;;;;;5.00;2.00;;;15.20;1.00;;;;;;5060073;28;20525;-81
2022/09/04 06:24:38;;;;;;;5.97;2.20;;;15.30;1.00;;;;;;5060113;28;20488;-81
2022/09/04 06:27:24;;;;;;;5.90;2.00;;;15.50;1.00;;;;;;5050421;28;20484;-80
2022/09/04 06:30:05;;;;;;;7.30;2.30;;;15.80;1.00;;;;;;5057559;28;20460;-77
2022/09/04 06:33:05;;;;;;;5.70;1.77;;;16.00;1.00;;;;;;5049850;28;20464;-76
2022/09/04 06:36:00;;;;;;;5.90;2.33;;;16.00;1.00;;;;;;5063836;28;20464;-80
2022/09/04 06:38:56;;;;;;;5.27;2.10;;;15.90;1.00;;;;;;5059779;28;20424;-79
2022/09/04 06:41:41;;;;;;;5.87;2.00;;;15.80;1.00;;;;;;5060757;28;20417;-79
2022/09/04 06:44:27;;;;;;;6.10;2.17;;;15.90;1.00;;;;;;5041293;28;20473;-80
2022/09/04 06:47:05;;;;;;;6.40;2.37;;;15.90;1.00;;;;;;5038063;28;20473;-77
2022/09/04 06:49:41;;;;;;;10.70;3.77;;;15.90;1.00;;;;;;5019439;28;20503;-81
2022/09/04 06:52:29;;;;;;;6.40;2.57;;;15.90;1.00;;;;;;5037665;28;20512;-81
2022/09/04 06:55:07;;;;;;;8.33;2.70;;;16.10;1.00;;;;;;5039761;28;20409;-77
2022/09/04 06:58:09;;;;;;;5.43;2.60;;;16.20;1.00;;;;;;5041669;28;20433;-80
2022/09/04 07:01:02;;;;;;;8.53;4.50;;;16.20;1.00;;;;;;5041601;28;20425;-77
2022/09/04 07:03:44;;;;;;;6.70;2.40;;;16.30;1.00;;;;;;5035950;28;20518;-81
2022/09/04 07:06:16;;;;;;;6.10;2.67;;;16.30;1.00;;;;;;5040586;28;20421;-80
2022/09/04 07:08:59;;;;;;;7.10;2.57;;;16.40;1.00;;;;;;5028207;28;20481;-81
2022/09/04 07:11:44;;;;;;;7.00;2.90;;;16.40;1.00;;;;;;5022931;28;20434;-81
2022/09/04 07:15:10;;;;;;;7.03;2.80;;;16.50;1.00;;;;;;5020372;28;20493;-79
2022/09/04 07:17:41;;;;;;;6.50;2.80;;;16.60;1.00;;;;;;5025313;28;20430;-81
2022/09/04 07:20:20;;;;;;;5.50;2.50;;;16.70;1.00;;;;;;5023007;28;20440;-80
2022/09/04 07:23:08;;;;;;;6.20;2.80;;;16.90;1.00;;;;;;4998784;28;20482;-79
2022/09/04 07:25:49;;;;;;;8.37;3.10;;;17.10;1.00;;;;;;5036082;28;20441;-79
2022/09/04 07:28:35;;;;;;;6.30;2.80;;;17.20;1.00;;;;;;5047681;28;20465;-81
2022/09/04 07:31:11;;;;;;;5.73;2.93;;;17.20;1.00;;;;;;5043158;28;20492;-81
2022/09/04 07:33:47;;;;;;;10.03;3.70;;;17.40;1.00;;;;;;5040895;28;20406;-75
2022/09/04 07:36:31;;;;;;;7.33;3.47;;;17.50;1.00;;;;;;5037452;28;20445;-75
2022/09/04 07:39:07;;;;;;;6.23;2.87;;;17.80;1.00;;;;;;5039159;28;20480;-80
2022/09/04 07:41:44;;;;;;;6.90;3.30;;;17.90;1.00;;;;;;5038358;28;20466;-76
2022/09/04 07:44:23;;;;;;;5.80;2.87;;;18.10;1.00;;;;;;5058637;28;20517;-80
2022/09/04 07:47:11;;;;;;;7.37;3.50;;;18.20;1.00;;;;;;5079754;27;20463;-80
2022/09/04 07:49:49;;;;;;;6.90;3.17;;;18.40;1.00;;;;;;5063372;28;20451;-79
2022/09/04 07:52:29;;;;;;;7.47;2.77;;;18.50;1.00;;;;;;5058655;28;20420;-78
2022/09/04 07:55:26;;;;;;;5.73;2.93;;;18.50;1.00;;;;;;5053595;28;20427;-80
2022/09/04 07:58:30;;;;;;;6.77;3.50;;;18.70;1.00;;;;;;5007404;28;20465;-78
2022/09/04 08:01:15;;;;;;;7.07;3.77;;;18.90;1.00;;;;;;5048569;28;20963;-75
2022/09/04 08:04:09;;;;;;;6.80;3.63;;;19.00;1.00;;;;;;5044913;28;20469;-78
2022/09/04 08:06:43;;;;;;;7.27;4.03;;;19.10;1.00;;;;;;5062204;28;20456;-80
2022/09/04 08:09:49;;;;;;;7.50;3.10;;;19.20;1.00;;;;;;5059283;28;20560;-81
2022/09/04 08:12:52;;;;;;;6.27;3.53;;;19.40;1.00;;;;;;5054876;28;20502;-80
2022/09/04 08:15:35;;;;;;;9.27;4.00;;;19.50;1.00;;;;;;5052049;28;20448;-79
2022/09/04 08:18:29;;;;;;;6.93;3.90;;;19.60;1.00;;;;;;5054772;28;20455;-82
2022/09/04 08:21:19;;;;;;;7.20;3.20;;;19.70;1.00;;;;;;5051785;28;21507;-76
2022/09/04 08:24:09;;;;;;;6.80;3.70;;;19.90;1.00;;;;;;5049459;28;20471;-80
2022/09/04 08:26:52;;;;;;;7.20;3.90;;;20.00;1.00;;;;;;5060050;28;20428;-83
2022/09/04 08:29:39;;;;;;;8.60;4.60;;;20.20;1.00;;;;;;5062379;28;20420;-78
2022/09/04 08:32:19;;;;;;;7.13;3.70;;;20.30;1.00;;;;;;5059829;28;20479;-76
2022/09/04 08:35:02;;;;;;;6.47;3.80;;;20.30;1.00;;;;;;5051001;28;20467;-80
2022/09/04 08:37:43;;;;;;;6.80;4.13;;;20.50;1.00;;;;;;5055123;28;20472;-77
2022/09/04 08:40:40;;;;;;;7.33;3.40;;;20.60;1.00;;;;;;5056245;28;20849;-77
2022/09/04 08:44:00;;;;;;;9.10;4.03;;;20.60;1.00;;;;;;5025663;28;20491;-79
2022/09/04 08:47:10;;;;;;;6.30;3.43;;;20.80;1.00;;;;;;5056359;28;20465;-81
2022/09/04 08:50:26;;;;;;;7.40;3.67;;;20.90;1.00;;;;;;5057866;28;20619;-79
2022/09/04 08:53:29;;;;;;;6.97;3.50;;;20.90;1.00;;;;;;5019755;28;20527;-80
2022/09/04 08:56:21;;;;;;;6.43;3.10;;;21.10;1.00;;;;;;5030055;28;20453;-76
2022/09/04 08:59:37;;;;;;;6.37;3.30;;;21.30;1.00;;;;;;5046826;28;24669;-76
2022/09/04 09:02:59;;;;;;;8.43;3.90;;;21.50;1.00;;;;;;5049399;28;20463;-79
2022/09/04 09:05:54;;;;;;;5.80;3.67;;;21.70;1.00;;;;;;5066125;28;20396;-79
2022/09/04 09:08:53;;;;;;;6.60;3.30;;;21.80;1.00;;;;;;5050175;28;20464;-76
2022/09/04 09:11:49;;;;;;;8.27;3.50;;;22.00;1.00;;;;;;5033807;28;21070;-76
2022/09/04 09:14:49;;;;;;;8.83;4.63;;;22.00;1.00;;;;;;5058879;28;20461;-76
2022/09/04 09:17:37;;;;;;;6.57;3.73;;;22.20;1.00;;;;;;5063940;28;20417;-80
2022/09/04 09:20:29;;;;;;;6.40;3.63;;;22.40;1.00;;;;;;5056816;28;20492;-79
2022/09/04 09:23:16;;;;;;;8.50;3.37;;;22.70;1.00;;;;;;5057876;28;20499;-82
2022/09/04 09:25:51;;;;;;;6.93;2.70;;;23.80;1.00;;;;;;5060720;28;20996;-83
2022/09/04 09:29:04;;;;;;;6.40;3.40;;;24.90;1.00;;;;;;5056811;28;20451;-79
2022/09/04 09:32:11;;;;;;;6.03;2.67;;;25.70;1.00;;;;;;5019675;28;20579;-79
2022/09/04 09:35:21;;;;;;;5.60;2.80;;;27.10;1.00;;;;;;5062093;28;20452;-81
2022/09/04 09:38:22;;;;;;;6.30;2.90;;;28.30;1.00;;;;;;5057530;28;20567;-83
2022/09/04 09:41:27;;;;;;;5.93;3.03;;;28.40;1.00;;;;;;5064679;28;20451;-83
2022/09/04 09:44:32;;;;;;;9.10;2.73;;;29.00;1.00;;;;;;5042613;28;20481;-83
2022/09/04 09:47:36;;;;;;;6.80;3.50;;;30.10;1.00;;;;;;5043617;28;20417;-82
2022/09/04 09:50:59;;;;;;;5.07;2.80;;;30.70;1.00;;;;;;5038908;28;20544;-83
2022/09/04 09:54:00;;;;;;;6.30;2.80;;;31.20;1.00;;;;;;5021365;28;21190;-83
2022/09/04 09:57:10;;;;;;;5.27;2.70;;;30.70;1.00;;;;;;5037911;28;20469;-83
2022/09/04 10:00:06;;;;;;;8.53;4.40;;;31.30;1.00;;;;;;5039477;28;20492;-82
2022/09/04 10:03:08;;;;;;;6.30;3.00;;;31.50;1.00;;;;;;5038049;28;20485;-85
2022/09/04 10:06:23;;;;;;;5.07;2.80;;;32.30;1.00;;;;;;5040498;28;20444;-78
2022/09/04 10:09:24;;;;;;;4.47;2.50;;;31.80;1.00;;;;;;5038841;28;20464;-80
2022/09/04 10:12:28;;;;;;;4.70;2.97;;;32.00;1.00;;;;;;5030203;28;20458;-78
2022/09/04 10:15:39;;;;;;;4.10;2.30;;;32.90;1.00;;;;;;5011901;28;20465;-80
2022/09/04 10:18:39;;;;;;;5.20;2.53;;;33.00;1.00;;;;;;4999404;28;20457;-80
2022/09/04 10:21:36;;;;;;;5.40;2.73;;;32.30;1.00;;;;;;5036858;28;20441;-81
2022/09/04 10:24:36;;;;;;;4.63;2.70;;;32.30;1.00;;;;;;5039114;28;20449;-81
2022/09/04 10:27:33;;;;;;;5.43;3.00;;;32.90;1.00;;;;;;5035757;28;20592;-77
2022/09/04 10:30:10;;;;;;;6.53;2.80;;;33.60;1.00;;;;;;5036675;28;20552;-79
2022/09/04 10:33:25;;;;;;;4.33;2.60;;;33.60;1.00;;;;;;5038061;28;20974;-80
2022/09/04 10:36:16;;;;;;;5.70;3.30;;;33.30;1.00;;;;;;5034427;28;20441;-81
2022/09/04 10:42:09;;;;;;;4.77;2.83;;;33.60;1.00;;;;;;5023249;28;20465;-79
2022/09/04 10:44:49;;;;;;;6.03;3.30;;;33.90;1.00;;;;;;5038041;28;20453;-82
2022/09/04 10:47:36;;;;;;;6.90;3.10;;;34.50;1.00;;;;;;5038086;28;20475;-78
2022/09/04 10:50:36;;;;;;;4.20;2.47;;;35.30;1.00;;;;;;5041297;28;20480;-81
2022/09/04 10:53:37;;;;;;;4.77;2.50;;;35.80;1.00;;;;;;5039688;28;20457;-80
2022/09/04 10:56:28;;;;;;;4.17;2.80;;;36.00;1.00;;;;;;5057353;28;21137;-79
2022/09/04 10:59:30;;;;;;;5.20;3.20;;;35.70;1.00;;;;;;5057401;28;20465;-79
2022/09/04 11:02:23;;;;;;;8.73;7.83;;;36.10;1.00;;;;;;5038596;28;20522;-81
2022/09/04 11:05:35;;;;;;;4.90;2.47;;;35.80;1.00;;;;;;5028145;28;21059;-81
2022/09/04 11:08:35;;;;;;;5.67;3.00;;;35.70;1.00;;;;;;5053989;28;20513;-82
2022/09/04 11:11:24;;;;;;;3.97;2.40;;;35.20;1.00;;;;;;5052472;28;20836;-80
2022/09/04 11:14:27;;;;;;;4.10;2.60;;;34.90;1.00;;;;;;5056747;28;20941;-79
2022/09/04 11:17:40;;;;;;;5.30;2.40;;;34.70;1.00;;;;;;5058088;28;20443;-80
2022/09/04 11:20:32;;;;;;;5.93;2.50;;;34.40;1.00;;;;;;5034843;28;20464;-82
2022/09/04 11:23:42;;;;;;;6.30;3.43;;;33.80;1.00;;;;;;5035001;28;20417;-81
2022/09/04 11:26:53;;;;;;;7.00;3.77;;;33.60;1.00;;;;;;5036356;28;20502;-82
2022/09/04 11:29:48;;;;;;;4.90;2.87;;;31.80;1.00;;;;;;5060220;28;20459;-81
2022/09/04 11:32:52;;;;;;;5.23;3.20;;;31.20;1.00;;;;;;5058195;28;20514;-80
2022/09/04 11:36:02;;;;;;;5.80;2.90;;;31.70;1.00;;;;;;5058646;28;20436;-79
2022/09/04 11:38:55;;;;;;;5.30;3.07;;;34.00;1.00;;;;;;5055408;28;21181;-80
2022/09/04 11:41:58;;;;;;;6.03;3.00;;;35.20;1.00;;;;;;5056103;28;20416;-79
2022/09/04 11:44:52;;;;;;;4.23;2.63;;;36.00;1.00;;;;;;5022164;28;20464;-79
2022/09/04 11:47:58;;;;;;;4.80;3.00;;;36.50;1.00;;;;;;5038459;28;20457;-79
2022/09/04 11:50:42;;;;;;;5.00;2.50;;;36.70;1.00;;;;;;5017005;28;20501;-83
2022/09/04 11:53:50;;;;;;;4.30;2.43;;;36.50;1.00;;;;;;5033908;28;20444;-79
2022/09/04 11:56:40;;;;;;;4.20;3.20;;;35.80;1.00;;;;;;5032998;28;20463;-83
2022/09/04 11:59:40;;;;;;;4.20;2.53;;;35.90;1.00;;;;;;5038697;28;20948;-79
2022/09/04 12:02:32;;;;;;;4.00;2.67;;;36.00;1.00;;;;;;5037324;28;20564;-80
2022/09/04 12:05:12;;;;;;;4.43;2.70;;;37.00;1.00;;;;;;5037617;28;20497;-79
2022/09/04 12:08:01;;;;;;;6.17;2.83;;;38.30;1.00;;;;;;5036875;28;20486;-82
2022/09/04 12:10:51;;;;;;;4.80;2.93;;;38.70;1.00;;;;;;5034656;28;20500;-78
2022/09/04 12:14:02;;;;;;;5.53;3.10;;;38.60;1.00;;;;;;5034960;28;20453;-80
2022/09/04 12:17:05;;;;;;;4.97;2.67;;;38.60;1.00;;;;;;5036808;28;20463;-79
2022/09/04 12:20:08;;;;;;;4.77;2.57;;;38.50;1.00;;;;;;5029549;28;21147;-80
2022/09/04 12:23:10;;;;;;;6.00;2.70;;;38.20;1.00;;;;;;5040484;28;20489;-78
2022/09/04 12:26:02;;;;;;;6.13;5.53;;;35.60;1.00;;;;;;4997161;28;20432;-79
2022/09/04 12:29:09;;;;;;;4.90;3.00;;;34.10;1.00;;;;;;5041068;28;20536;-81
2022/09/04 12:32:25;;;;;;;4.83;3.17;;;35.20;1.00;;;;;;5025486;28;20588;-79
2022/09/04 12:35:28;;;;;;;4.30;2.90;;;35.70;1.00;;;;;;5006355;28;20517;-81
2022/09/04 12:38:28;;;;;;;4.10;2.70;;;35.30;1.00;;;;;;5041878;28;20477;-78
2022/09/04 12:41:02;;;;;;;5.67;2.97;;;35.90;1.00;;;;;;5031051;28;20461;-80
2022/09/04 12:43:49;;;;;;;6.17;3.70;;;36.50;1.00;;;;;;5055701;28;20449;-79
2022/09/04 12:46:34;;;;;;;4.57;3.10;;;36.70;1.00;;;;;;5056780;28;20448;-82
2022/09/04 12:49:16;;;;;;;4.13;2.77;;;36.10;1.00;;;;;;5055749;28;20519;-81
2022/09/04 12:51:54;;;;;;;5.30;2.70;;;35.00;1.00;;;;;;5058389;28;20559;-80
2022/09/04 12:54:33;;;;;;;4.00;2.40;;;36.00;1.00;;;;;;5057063;28;20451;-81
2022/09/04 12:57:20;;;;;;;4.50;2.37;;;36.10;1.00;;;;;;5056851;28;20429;-80
2022/09/04 13:00:03;;;;;;;5.50;2.57;;;35.80;1.00;;;;;;5060736;28;20437;-79
2022/09/04 13:02:45;;;;;;;5.53;2.83;;;35.80;1.00;;;;;;5053488;28;20459;-79
2022/09/04 13:05:45;;;;;;;4.93;2.70;;;36.00;1.00;;;;;;5059719;28;20448;-80
2022/09/04 13:08:28;;;;;;;9.73;6.30;;;36.20;1.00;;;;;;5055156;28;20873;-79
2022/09/04 13:11:21;;;;;;;4.03;2.30;;;36.30;1.00;;;;;;5063306;28;21204;-79
2022/09/04 13:14:04;;;;;;;6.17;2.67;;;35.90;1.00;;;;;;5061562;28;20444;-83
2022/09/04 13:16:40;;;;;;;4.07;2.40;;;35.60;1.00;;;;;;5058666;28;20491;-78
2022/09/04 13:19:21;;;;;;;4.30;2.70;;;37.00;1.00;;;;;;5059479;28;20930;-81
2022/09/04 13:22:06;;;;;;;5.43;2.80;;;38.40;1.00;;;;;;5057625;28;20464;-82
2022/09/04 13:24:53;;;;;;;4.40;2.47;;;38.80;1.00;;;;;;5056938;28;20747;-79
2022/09/04 13:27:45;;;;;;;3.70;2.47;;;38.30;1.00;;;;;;5060229;28;20416;-79
2022/09/04 13:30:20;;;;;;;5.37;2.17;;;38.10;1.00;;;;;;5055589;28;20460;-79
2022/09/04 13:33:22;;;;;;;4.50;2.53;;;38.90;1.00;;;;;;5060548;28;20903;-80
2022/09/04 13:36:12;;;;;;;4.20;2.70;;;38.30;1.00;;;;;;5054871;28;20522;-79
2022/09/04 13:39:21;;;;;;;3.63;2.30;;;36.50;1.00;;;;;;5055615;28;20443;-82
2022/09/04 13:42:38;;;;;;;4.73;2.77;;;35.90;1.00;;;;;;4944627;28;20483;-79
2022/09/04 13:45:15;;;;;;;5.17;2.90;;;36.60;1.00;;;;;;5035448;28;20432;-81
2022/09/04 13:47:52;;;;;;;3.80;2.50;;;37.20;1.00;;;;;;5039504;28;20422;-78
2022/09/04 13:50:24;;;;;;;4.00;2.63;;;36.00;1.00;;;;;;5022123;28;21009;-82
2022/09/04 13:52:58;;;;;;;4.43;2.93;;;34.00;1.00;;;;;;5038730;28;20456;-79
2022/09/04 13:55:31;;;;;;;4.60;2.53;;;31.90;1.00;;;;;;5046359;28;20531;-78
2022/09/04 13:58:12;;;;;;;5.20;3.23;;;30.60;1.00;;;;;;5034812;28;20464;-80
2022/09/04 14:00:44;;;;;;;4.53;2.40;;;30.00;1.00;;;;;;5038359;28;20539;-77
2022/09/04 14:03:20;;;;;;;4.03;2.40;;;29.50;1.00;;;;;;5038187;28;20452;-78
2022/09/04 14:05:48;;;;;;;10.57;8.40;;;29.30;1.00;;;;;;5047297;28;20483;-79
2022/09/04 14:08:22;;;;;;;5.07;2.53;;;28.80;1.00;;;;;;5056456;28;20526;-79
2022/09/04 14:11:25;;;;;;;6.80;3.23;;;28.40;1.00;;;;;;5056586;28;20949;-78
2022/09/04 14:14:24;;;;;;;5.60;3.10;;;28.00;1.00;;;;;;5019897;28;20836;-79
2022/09/04 14:16:54;;;;;;;7.67;3.30;;;27.70;1.00;;;;;;5040334;28;20446;-83
2022/09/04 14:19:39;;;;;;;5.57;2.87;;;27.60;1.00;;;;;;5037734;28;20461;-79
2022/09/04 14:22:36;;;;;;;4.97;2.57;;;27.50;1.00;;;;;;5039005;28;20465;-80
2022/09/04 14:25:14;;;;;;;5.57;2.63;;;27.50;1.00;;;;;;5036513;28;20427;-81
2022/09/04 14:27:52;;;;;;;5.20;2.87;;;27.30;1.00;;;;;;5039449;28;21119;-82
2022/09/04 14:30:24;;;;;;;4.77;2.63;;;27.00;1.00;;;;;;5038228;28;20456;-81
2022/09/04 14:33:05;;;;;;;4.80;2.63;;;26.70;1.00;;;;;;5037373;28;20438;-82
2022/09/04 14:35:36;;;;;;;5.23;2.60;;;26.70;1.00;;;;;;5041340;28;20418;-78
2022/09/04 14:38:40;;;;;;;7.97;3.10;;;26.60;1.00;;;;;;5036489;28;20476;-79
2022/09/04 14:41:30;;;;;;;4.10;2.30;;;26.70;1.00;;;;;;4976813;28;20431;-78
2022/09/04 14:44:11;;;;;;;5.07;3.10;;;26.50;1.00;;;;;;5037063;28;20464;-81
2022/09/04 14:54:15;;;;;;;8.50;3.83;;;26.10;1.00;;;;;;5038326;28;20465;-82
2022/09/04 14:56:50;;;;;;;5.63;2.70;;;26.00;1.00;;;;;;5038496;28;20432;-78
2022/09/04 14:59:28;;;;;;;7.60;4.10;;;26.00;1.00;;;;;;5036766;28;20469;-80
2022/09/04 15:02:15;;;;;;;5.60;3.10;;;25.90;1.00;;;;;;5027588;28;20568;-81
2022/09/04 15:04:51;;;;;;;5.60;2.90;;;25.80;1.00;;;;;;5029893;28;20429;-80